Aviation Digital Data Service (ADDS)

Output produced by METARs form (1242 UTC 22 February 2018)
found at http://www.aviationweather.gov/adds/metars/
 
LHSM 221215Z 36008KT 0400 +SN OVC010 M00/M01 Q1015 NOSIG
TAF LHSM 221115Z 2212/2221 36010KT 1000 SN OVC010 
     TEMPO 2212/2215 0300 SN OVC005 
     PROB40 
     TEMPO 2212/2214 01015G25KT BLSN 
     BECMG 2215/2218 02007KT 6000 -SN
       
LHBC 221145Z 03011KT CAVOK 04/01 Q1014
LHBP 221230Z 04006KT 350V070 CAVOK 03/M02 Q1015 NOSIG
TAF LHBP 221115Z 2212/2312 03006KT 9999 SCT040 BKN060 
     BECMG 2213/2216 6000 -SN BKN030 BKN040 
     TEMPO 2216/2223 1200 SN OVC008 
     TEMPO 2223/2307 OVC013 
     BECMG 2305/2307 9999 NSW
       
LHDC 221215Z 02015KT CAVOK 04/M02 Q1014 NOSIG
TAF LHDC 220815Z 2209/2218 02018G28KT CAVOK 
     BECMG 2209/2212 BKN030 BKN080 OVC200 
     BECMG 2213/2216 02009KT 
     TEMPO 2215/2218 4000 RA RASN BKN010 OVC030
       
LHKE 221215Z 05012KT 7000 -SN BKN020 OVC040 01/M01 Q1014 NOSIG RMK WHT
TAF LHKE 221115Z 2212/2221 06014KT 5000 -SN BR BKN015 OVC025 
     TEMPO 2212/2214 05010G20KT 8000 NSW SCT040 OVC083 
     BECMG 2214/2216 05008KT 3000 SN BR BKN007 OVC012 
     TEMPO 2217/2221 1000 SN BR BKN003 OVC005
       
LHPA 221215Z 01008KT 4000 -SN BR SCT012 OVC027 M00/M03 Q1016 TEMPO 3000 -SN BR SCT010 OVC015 RMK GRN
TAF LHPA 221115Z 2212/2312 01008KT 6000 -SN OVC030 
     BECMG 2212/2214 5000 -SN BR BKN005 OVC020 
     TEMPO 2213/2221 1000 SN BKN003 OVC015 
     TEMPO 2221/2312 6000 NSW OVC010
       
LHPP 221215Z 06011KT 6000 -SN OVC010 M01/M02 Q1013
TAF LHPP 221115Z 2212/2221 06012G24KT 6000 -SN OVC010 
     TEMPO 2212/2221 3000 SN BR OVC005
       
LHPR 221215Z 01007KT 8000 -SN OVC030 01/M03 Q1016 RMK BLU
TAF LHPR 221115Z 2212/2221 03009KT 9999 OVC035 
     TEMPO 2212/2221 4000 -SN BKN008 OVC020
       
LHSM 221215Z 36008KT 0400 +SN OVC010 M00/M01 Q1015 NOSIG
TAF LHSM 221115Z 2212/2221 36010KT 1000 SN OVC010 
     TEMPO 2212/2215 0300 SN OVC005 
     PROB40 
     TEMPO 2212/2214 01015G25KT BLSN 
     BECMG 2215/2218 02007KT 6000 -SN
       
LHSN 221215Z 07016KT 9999 SCT033 BKN050 03/M01 Q1014 NOSIG RMK BLU
TAF LHSN 221115Z 2212/2221 06014KT 9999 SCT040 BKN070 
     BECMG 2213/2215 5000 -SNRA -SN BKN020 OVC050 
     TEMPO 2214/2221 04008KT 1500 SN BR BKN007 OVC015 
     BECMG 2217/2219 BKN010 OVC025
       
LHUD 221215Z 03008KT 2000 SN OVC007 01/00 Q1014
LHDC 221215Z 02015KT CAVOK 04/M02 Q1014 NOSIG
TAF LHDC 220815Z 2209/2218 02018G28KT CAVOK 
     BECMG 2209/2212 BKN030 BKN080 OVC200 
     BECMG 2213/2216 02009KT 
     TEMPO 2215/2218 4000 RA RASN BKN010 OVC030
       
LHBP 221230Z 04006KT 350V070 CAVOK 03/M02 Q1015 NOSIG
TAF LHBP 221115Z 2212/2312 03006KT 9999 SCT040 BKN060 
     BECMG 2213/2216 6000 -SN BKN030 BKN040 
     TEMPO 2216/2223 1200 SN OVC008 
     TEMPO 2223/2307 OVC013 
     BECMG 2305/2307 9999 NSW
       
LHKE 221215Z 05012KT 7000 -SN BKN020 OVC040 01/M01 Q1014 NOSIG RMK WHT
TAF LHKE 221115Z 2212/2221 06014KT 5000 -SN BR BKN015 OVC025 
     TEMPO 2212/2214 05010G20KT 8000 NSW SCT040 OVC083 
     BECMG 2214/2216 05008KT 3000 SN BR BKN007 OVC012 
     TEMPO 2217/2221 1000 SN BR BKN003 OVC005
       
LHPA 221215Z 01008KT 4000 -SN BR SCT012 OVC027 M00/M03 Q1016 TEMPO 3000 -SN BR SCT010 OVC015 RMK GRN
TAF LHPA 221115Z 2212/2312 01008KT 6000 -SN OVC030 
     BECMG 2212/2214 5000 -SN BR BKN005 OVC020 
     TEMPO 2213/2221 1000 SN BKN003 OVC015 
     TEMPO 2221/2312 6000 NSW OVC010
       
LHSN 221215Z 07016KT 9999 SCT033 BKN050 03/M01 Q1014 NOSIG RMK BLU
TAF LHSN 221115Z 2212/2221 06014KT 9999 SCT040 BKN070 
     BECMG 2213/2215 5000 -SNRA -SN BKN020 OVC050 
     TEMPO 2214/2221 04008KT 1500 SN BR BKN007 OVC015 
     BECMG 2217/2219 BKN010 OVC025